sensor_id;sensor_type;location;lat;lon;timestamp;temperature;humidity
64209;DHT22;50527;52.414;13.226;2022-11-24T00:00:05;3.10;99.90
64209;DHT22;50527;52.414;13.226;2022-11-24T00:02:31;3.20;99.90
64209;DHT22;50527;52.414;13.226;2022-11-24T00:04:56;3.20;99.90
64209;DHT22;50527;52.414;13.226;2022-11-24T00:07:22;3.30;99.90
64209;DHT22;50527;52.414;13.226;2022-11-24T00:09:47;3.30;99.90
64209;DHT22;50527;52.414;13.226;2022-11-24T00:12:13;3.10;99.90
64209;DHT22;50527;52.414;13.226;2022-11-24T00:14:38;3.20;99.90
64209;DHT22;50527;52.414;13.226;2022-11-24T00:17:04;3.20;99.90
64209;DHT22;50527;52.414;13.226;2022-11-24T00:19:29;3.10;99.90
64209;DHT22;50527;52.414;13.226;2022-11-24T00:21:54;3.10;99.90
64209;DHT22;50527;52.414;13.226;2022-11-24T00:24:20;3.00;99.90
64209;DHT22;50527;52.414;13.226;2022-11-24T00:26:45;3.10;99.90
64209;DHT22;50527;52.414;13.226;2022-11-24T00:29:11;3.10;99.90
64209;DHT22;50527;52.414;13.226;2022-11-24T00:31:38;3.10;99.90
64209;DHT22;50527;52.414;13.226;2022-11-24T00:34:06;3.00;99.90
64209;DHT22;50527;52.414;13.226;2022-11-24T00:36:34;3.00;99.90
64209;DHT22;50527;52.414;13.226;2022-11-24T00:39:03;3.10;99.90
64209;DHT22;50527;52.414;13.226;2022-11-24T00:41:29;3.10;99.90
64209;DHT22;50527;52.414;13.226;2022-11-24T00:43:56;3.10;99.90
64209;DHT22;50527;52.414;13.226;2022-11-24T00:46:22;3.00;99.90
64209;DHT22;50527;52.414;13.226;2022-11-24T00:48:47;3.00;99.90
64209;DHT22;50527;52.414;13.226;2022-11-24T00:51:15;3.10;99.90
64209;DHT22;50527;52.414;13.226;2022-11-24T00:53:41;3.10;99.90
64209;DHT22;50527;52.414;13.226;2022-11-24T00:56:08;3.00;99.90
64209;DHT22;50527;52.414;13.226;2022-11-24T00:58:34;3.10;99.90
64209;DHT22;50527;52.414;13.226;2022-11-24T01:01:05;3.10;99.90
64209;DHT22;50527;52.414;13.226;2022-11-24T01:03:31;3.10;99.90
64209;DHT22;50527;52.414;13.226;2022-11-24T01:06:05;3.10;99.90
64209;DHT22;50527;52.414;13.226;2022-11-24T01:08:31;3.20;99.90
64209;DHT22;50527;52.414;13.226;2022-11-24T01:11:23;3.00;99.90
64209;DHT22;50527;52.414;13.226;2022-11-24T01:13:52;3.10;99.90
64209;DHT22;50527;52.414;13.226;2022-11-24T01:16:30;3.20;99.90
64209;DHT22;50527;52.414;13.226;2022-11-24T01:18:57;3.20;99.90
64209;DHT22;50527;52.414;13.226;2022-11-24T01:21:22;3.10;99.90
64209;DHT22;50527;52.414;13.226;2022-11-24T01:23:48;2.90;99.90
64209;DHT22;50527;52.414;13.226;2022-11-24T01:26:16;3.00;99.90
64209;DHT22;50527;52.414;13.226;2022-11-24T01:28:42;3.10;99.90
64209;DHT22;50527;52.414;13.226;2022-11-24T01:31:08;3.00;99.90
64209;DHT22;50527;52.414;13.226;2022-11-24T01:33:34;2.90;99.90
64209;DHT22;50527;52.414;13.226;2022-11-24T01:36:00;2.90;99.90
64209;DHT22;50527;52.414;13.226;2022-11-24T01:38:26;2.90;99.90
64209;DHT22;50527;52.414;13.226;2022-11-24T01:41:06;2.90;99.90
64209;DHT22;50527;52.414;13.226;2022-11-24T01:43:33;3.00;99.90
64209;DHT22;50527;52.414;13.226;2022-11-24T01:46:08;3.00;99.90
64209;DHT22;50527;52.414;13.226;2022-11-24T01:48:40;3.00;99.90
64209;DHT22;50527;52.414;13.226;2022-11-24T01:51:13;2.90;99.90
64209;DHT22;50527;52.414;13.226;2022-11-24T01:53:41;2.90;99.90
64209;DHT22;50527;52.414;13.226;2022-11-24T01:56:09;2.90;99.90
64209;DHT22;50527;52.414;13.226;2022-11-24T01:58:36;2.90;99.90
64209;DHT22;50527;52.414;13.226;2022-11-24T02:01:04;2.90;99.90
64209;DHT22;50527;52.414;13.226;2022-11-24T02:03:35;2.90;99.90
64209;DHT22;50527;52.414;13.226;2022-11-24T02:06:02;3.00;99.90
64209;DHT22;50527;52.414;13.226;2022-11-24T02:08:42;3.00;99.90
64209;DHT22;50527;52.414;13.226;2022-11-24T02:11:10;2.90;99.90
64209;DHT22;50527;52.414;13.226;2022-11-24T02:13:37;2.80;99.90
64209;DHT22;50527;52.414;13.226;2022-11-24T02:16:05;2.80;99.90
64209;DHT22;50527;52.414;13.226;2022-11-24T02:18:32;2.80;99.90
64209;DHT22;50527;52.414;13.226;2022-11-24T02:20:58;2.70;99.90
64209;DHT22;50527;52.414;13.226;2022-11-24T02:23:36;2.70;99.90
64209;DHT22;50527;52.414;13.226;2022-11-24T02:29:05;2.70;99.90
64209;DHT22;50527;52.414;13.226;2022-11-24T02:31:31;2.80;99.90
64209;DHT22;50527;52.414;13.226;2022-11-24T02:33:57;2.90;99.90
64209;DHT22;50527;52.414;13.226;2022-11-24T02:36:22;2.90;99.90
64209;DHT22;50527;52.414;13.226;2022-11-24T02:38:48;2.90;99.90
64209;DHT22;50527;52.414;13.226;2022-11-24T02:41:17;3.00;99.90
64209;DHT22;50527;52.414;13.226;2022-11-24T02:43:48;2.90;99.90
64209;DHT22;50527;52.414;13.226;2022-11-24T02:46:15;2.80;99.90
64209;DHT22;50527;52.414;13.226;2022-11-24T02:48:41;2.70;99.90
64209;DHT22;50527;52.414;13.226;2022-11-24T02:51:06;2.80;99.90
64209;DHT22;50527;52.414;13.226;2022-11-24T02:53:32;2.70;99.90
64209;DHT22;50527;52.414;13.226;2022-11-24T02:55:57;2.70;99.90
64209;DHT22;50527;52.414;13.226;2022-11-24T02:58:23;2.70;99.90
64209;DHT22;50527;52.414;13.226;2022-11-24T03:00:48;2.80;99.90
64209;DHT22;50527;52.414;13.226;2022-11-24T03:03:14;2.80;99.90
64209;DHT22;50527;52.414;13.226;2022-11-24T03:05:39;2.80;99.90
64209;DHT22;50527;52.414;13.226;2022-11-24T03:08:05;2.80;99.90
64209;DHT22;50527;52.414;13.226;2022-11-24T03:10:31;2.80;99.90
64209;DHT22;50527;52.414;13.226;2022-11-24T03:12:56;2.70;99.90
64209;DHT22;50527;52.414;13.226;2022-11-24T03:15:22;2.70;99.90
64209;DHT22;50527;52.414;13.226;2022-11-24T03:17:48;2.80;99.90
64209;DHT22;50527;52.414;13.226;2022-11-24T03:20:14;2.80;99.90
64209;DHT22;50527;52.414;13.226;2022-11-24T03:22:40;2.80;99.90
64209;DHT22;50527;52.414;13.226;2022-11-24T03:25:06;2.70;99.90
64209;DHT22;50527;52.414;13.226;2022-11-24T03:27:31;2.60;99.90
64209;DHT22;50527;52.414;13.226;2022-11-24T03:29:57;2.60;99.90
64209;DHT22;50527;52.414;13.226;2022-11-24T03:32:22;2.70;99.90
64209;DHT22;50527;52.414;13.226;2022-11-24T03:34:48;2.60;99.90
64209;DHT22;50527;52.414;13.226;2022-11-24T03:37:13;2.70;99.90
64209;DHT22;50527;52.414;13.226;2022-11-24T03:39:39;2.60;99.90
64209;DHT22;50527;52.414;13.226;2022-11-24T03:42:04;2.70;99.90
64209;DHT22;50527;52.414;13.226;2022-11-24T03:44:30;2.60;99.90
64209;DHT22;50527;52.414;13.226;2022-11-24T03:46:55;2.60;99.90
64209;DHT22;50527;52.414;13.226;2022-11-24T03:49:20;2.60;99.90
64209;DHT22;50527;52.414;13.226;2022-11-24T03:51:46;2.60;99.90
64209;DHT22;50527;52.414;13.226;2022-11-24T03:54:11;2.60;99.90
64209;DHT22;50527;52.414;13.226;2022-11-24T03:56:37;2.60;99.90
64209;DHT22;50527;52.414;13.226;2022-11-24T03:59:02;2.60;99.90
64209;DHT22;50527;52.414;13.226;2022-11-24T04:01:28;2.50;99.90
64209;DHT22;50527;52.414;13.226;2022-11-24T04:03:53;2.50;99.90
64209;DHT22;50527;52.414;13.226;2022-11-24T04:06:19;2.50;99.90
64209;DHT22;50527;52.414;13.226;2022-11-24T04:08:44;2.50;99.90
64209;DHT22;50527;52.414;13.226;2022-11-24T04:11:10;2.40;99.90
64209;DHT22;50527;52.414;13.226;2022-11-24T04:13:55;2.40;99.90
64209;DHT22;50527;52.414;13.226;2022-11-24T04:16:20;2.20;99.90
64209;DHT22;50527;52.414;13.226;2022-11-24T04:18:46;2.10;99.90
64209;DHT22;50527;52.414;13.226;2022-11-24T04:21:11;2.00;99.90
64209;DHT22;50527;52.414;13.226;2022-11-24T04:23:37;2.10;99.90
64209;DHT22;50527;52.414;13.226;2022-11-24T04:26:03;2.20;99.90
64209;DHT22;50527;52.414;13.226;2022-11-24T04:28:28;2.20;99.90
64209;DHT22;50527;52.414;13.226;2022-11-24T04:30:54;2.20;99.90
64209;DHT22;50527;52.414;13.226;2022-11-24T04:33:19;2.20;99.90
64209;DHT22;50527;52.414;13.226;2022-11-24T04:35:45;2.20;99.90
64209;DHT22;50527;52.414;13.226;2022-11-24T04:38:10;2.30;99.90
64209;DHT22;50527;52.414;13.226;2022-11-24T04:40:36;2.30;99.90
64209;DHT22;50527;52.414;13.226;2022-11-24T04:43:01;2.30;99.90
64209;DHT22;50527;52.414;13.226;2022-11-24T04:45:27;2.30;99.90
64209;DHT22;50527;52.414;13.226;2022-11-24T04:47:52;2.30;99.90
64209;DHT22;50527;52.414;13.226;2022-11-24T04:50:18;2.30;99.90
64209;DHT22;50527;52.414;13.226;2022-11-24T04:52:43;2.30;99.90
64209;DHT22;50527;52.414;13.226;2022-11-24T04:55:09;2.30;99.90
64209;DHT22;50527;52.414;13.226;2022-11-24T04:57:35;2.20;99.90
64209;DHT22;50527;52.414;13.226;2022-11-24T05:00:00;2.20;99.90
64209;DHT22;50527;52.414;13.226;2022-11-24T05:02:26;2.20;99.90
64209;DHT22;50527;52.414;13.226;2022-11-24T05:04:51;2.20;99.90
64209;DHT22;50527;52.414;13.226;2022-11-24T05:07:17;2.20;99.90
64209;DHT22;50527;52.414;13.226;2022-11-24T05:09:44;2.10;99.90
64209;DHT22;50527;52.414;13.226;2022-11-24T05:12:28;2.10;99.90
64209;DHT22;50527;52.414;13.226;2022-11-24T05:14:56;2.10;99.90
64209;DHT22;50527;52.414;13.226;2022-11-24T05:17:22;2.10;99.90
64209;DHT22;50527;52.414;13.226;2022-11-24T05:19:48;2.20;99.90
64209;DHT22;50527;52.414;13.226;2022-11-24T05:22:13;2.10;99.90
64209;DHT22;50527;52.414;13.226;2022-11-24T05:24:38;2.20;99.90
64209;DHT22;50527;52.414;13.226;2022-11-24T05:27:04;2.10;99.90
64209;DHT22;50527;52.414;13.226;2022-11-24T05:29:29;2.10;99.90
64209;DHT22;50527;52.414;13.226;2022-11-24T05:31:55;2.10;99.90
64209;DHT22;50527;52.414;13.226;2022-11-24T05:34:20;2.10;99.90
64209;DHT22;50527;52.414;13.226;2022-11-24T05:36:46;2.10;99.90
64209;DHT22;50527;52.414;13.226;2022-11-24T05:39:17;2.00;99.90
64209;DHT22;50527;52.414;13.226;2022-11-24T05:41:43;1.90;99.90
64209;DHT22;50527;52.414;13.226;2022-11-24T05:44:08;2.00;99.90
64209;DHT22;50527;52.414;13.226;2022-11-24T05:46:34;2.00;99.90
64209;DHT22;50527;52.414;13.226;2022-11-24T05:48:59;2.00;99.90
64209;DHT22;50527;52.414;13.226;2022-11-24T05:51:25;2.10;99.90
64209;DHT22;50527;52.414;13.226;2022-11-24T05:53:50;2.10;99.90
64209;DHT22;50527;52.414;13.226;2022-11-24T05:56:15;2.00;99.90
64209;DHT22;50527;52.414;13.226;2022-11-24T05:58:41;2.10;99.90
64209;DHT22;50527;52.414;13.226;2022-11-24T06:01:07;2.10;99.90
64209;DHT22;50527;52.414;13.226;2022-11-24T06:03:32;2.10;99.90
64209;DHT22;50527;52.414;13.226;2022-11-24T06:05:58;2.10;99.90
64209;DHT22;50527;52.414;13.226;2022-11-24T06:08:23;2.10;99.90
64209;DHT22;50527;52.414;13.226;2022-11-24T06:10:49;2.00;99.90
64209;DHT22;50527;52.414;13.226;2022-11-24T06:13:14;2.00;99.90
64209;DHT22;50527;52.414;13.226;2022-11-24T06:15:40;2.00;99.90
64209;DHT22;50527;52.414;13.226;2022-11-24T06:18:06;2.10;99.90
64209;DHT22;50527;52.414;13.226;2022-11-24T06:20:31;2.10;99.90
64209;DHT22;50527;52.414;13.226;2022-11-24T06:22:57;2.10;99.90
64209;DHT22;50527;52.414;13.226;2022-11-24T06:25:23;2.10;99.90
64209;DHT22;50527;52.414;13.226;2022-11-24T06:27:48;2.00;99.90
64209;DHT22;50527;52.414;13.226;2022-11-24T06:30:14;2.10;99.90
64209;DHT22;50527;52.414;13.226;2022-11-24T06:32:39;2.10;99.90
64209;DHT22;50527;52.414;13.226;2022-11-24T06:35:10;2.00;99.90
64209;DHT22;50527;52.414;13.226;2022-11-24T06:37:35;2.10;99.90
64209;DHT22;50527;52.414;13.226;2022-11-24T06:40:01;2.10;99.90
64209;DHT22;50527;52.414;13.226;2022-11-24T06:42:27;2.00;99.90
64209;DHT22;50527;52.414;13.226;2022-11-24T06:44:52;1.90;99.90
64209;DHT22;50527;52.414;13.226;2022-11-24T06:47:18;2.00;99.90
64209;DHT22;50527;52.414;13.226;2022-11-24T06:49:43;2.10;99.90
64209;DHT22;50527;52.414;13.226;2022-11-24T06:52:08;2.10;99.90
64209;DHT22;50527;52.414;13.226;2022-11-24T06:54:34;2.00;99.90
64209;DHT22;50527;52.414;13.226;2022-11-24T06:56:59;2.00;99.90
64209;DHT22;50527;52.414;13.226;2022-11-24T06:59:25;2.00;99.90
64209;DHT22;50527;52.414;13.226;2022-11-24T07:01:52;2.10;99.90
64209;DHT22;50527;52.414;13.226;2022-11-24T07:04:18;2.10;99.90
64209;DHT22;50527;52.414;13.226;2022-11-24T07:06:43;2.00;99.90
64209;DHT22;50527;52.414;13.226;2022-11-24T07:09:11;2.10;99.90
64209;DHT22;50527;52.414;13.226;2022-11-24T07:11:37;2.20;99.90
64209;DHT22;50527;52.414;13.226;2022-11-24T07:14:03;2.20;99.90
64209;DHT22;50527;52.414;13.226;2022-11-24T07:16:29;2.10;99.90
64209;DHT22;50527;52.414;13.226;2022-11-24T07:18:55;2.10;99.90
64209;DHT22;50527;52.414;13.226;2022-11-24T07:21:22;2.10;99.90
64209;DHT22;50527;52.414;13.226;2022-11-24T07:23:49;2.00;99.90
64209;DHT22;50527;52.414;13.226;2022-11-24T07:26:15;2.00;99.90
64209;DHT22;50527;52.414;13.226;2022-11-24T07:28:40;2.10;99.90
64209;DHT22;50527;52.414;13.226;2022-11-24T07:31:07;2.10;99.90
64209;DHT22;50527;52.414;13.226;2022-11-24T07:33:34;2.20;99.90
64209;DHT22;50527;52.414;13.226;2022-11-24T07:36:00;2.30;99.90
64209;DHT22;50527;52.414;13.226;2022-11-24T07:38:28;2.30;99.90
64209;DHT22;50527;52.414;13.226;2022-11-24T07:40:53;2.40;99.90
64209;DHT22;50527;52.414;13.226;2022-11-24T07:43:19;2.40;99.90
64209;DHT22;50527;52.414;13.226;2022-11-24T07:45:50;2.40;99.90
64209;DHT22;50527;52.414;13.226;2022-11-24T07:48:16;2.30;99.90
64209;DHT22;50527;52.414;13.226;2022-11-24T07:50:41;2.20;99.90
64209;DHT22;50527;52.414;13.226;2022-11-24T07:53:07;2.20;99.90
64209;DHT22;50527;52.414;13.226;2022-11-24T07:55:32;2.10;99.90
64209;DHT22;50527;52.414;13.226;2022-11-24T07:57:59;2.20;99.90
64209;DHT22;50527;52.414;13.226;2022-11-24T08:00:25;2.10;99.90
64209;DHT22;50527;52.414;13.226;2022-11-24T08:02:51;2.30;99.90
64209;DHT22;50527;52.414;13.226;2022-11-24T08:05:16;2.30;99.90
64209;DHT22;50527;52.414;13.226;2022-11-24T08:07:42;2.30;99.90
64209;DHT22;50527;52.414;13.226;2022-11-24T08:10:08;2.40;99.90
64209;DHT22;50527;52.414;13.226;2022-11-24T08:12:33;2.40;99.90
64209;DHT22;50527;52.414;13.226;2022-11-24T08:14:58;2.40;99.90
64209;DHT22;50527;52.414;13.226;2022-11-24T08:17:24;2.40;99.90
64209;DHT22;50527;52.414;13.226;2022-11-24T08:19:49;2.50;99.90
64209;DHT22;50527;52.414;13.226;2022-11-24T08:22:15;2.60;99.90
64209;DHT22;50527;52.414;13.226;2022-11-24T08:24:41;2.60;99.90
64209;DHT22;50527;52.414;13.226;2022-11-24T08:27:12;2.70;99.90
64209;DHT22;50527;52.414;13.226;2022-11-24T08:29:37;2.70;99.90
64209;DHT22;50527;52.414;13.226;2022-11-24T08:32:03;2.80;99.90
64209;DHT22;50527;52.414;13.226;2022-11-24T08:34:28;2.80;99.90
64209;DHT22;50527;52.414;13.226;2022-11-24T08:36:54;2.80;99.90
64209;DHT22;50527;52.414;13.226;2022-11-24T08:39:19;2.80;99.90
64209;DHT22;50527;52.414;13.226;2022-11-24T08:41:45;2.80;99.90
64209;DHT22;50527;52.414;13.226;2022-11-24T08:44:10;2.80;99.90
64209;DHT22;50527;52.414;13.226;2022-11-24T08:46:39;2.90;99.90
64209;DHT22;50527;52.414;13.226;2022-11-24T08:49:05;3.00;99.90
64209;DHT22;50527;52.414;13.226;2022-11-24T08:51:31;3.00;99.90
64209;DHT22;50527;52.414;13.226;2022-11-24T08:53:59;3.10;99.90
64209;DHT22;50527;52.414;13.226;2022-11-24T08:56:28;3.10;99.90
64209;DHT22;50527;52.414;13.226;2022-11-24T08:58:54;3.10;99.90
64209;DHT22;50527;52.414;13.226;2022-11-24T09:01:20;3.10;99.90
64209;DHT22;50527;52.414;13.226;2022-11-24T09:03:47;3.10;99.90
64209;DHT22;50527;52.414;13.226;2022-11-24T09:06:13;3.10;99.90
64209;DHT22;50527;52.414;13.226;2022-11-24T09:08:38;3.10;99.90
64209;DHT22;50527;52.414;13.226;2022-11-24T09:11:06;3.20;99.90
64209;DHT22;50527;52.414;13.226;2022-11-24T09:13:32;3.20;99.90
64209;DHT22;50527;52.414;13.226;2022-11-24T09:16:02;3.30;99.90
64209;DHT22;50527;52.414;13.226;2022-11-24T09:18:28;3.30;99.90
64209;DHT22;50527;52.414;13.226;2022-11-24T09:20:54;3.50;99.90
64209;DHT22;50527;52.414;13.226;2022-11-24T09:23:22;3.60;99.90
64209;DHT22;50527;52.414;13.226;2022-11-24T09:25:48;3.50;99.90
64209;DHT22;50527;52.414;13.226;2022-11-24T09:28:13;3.60;99.90
64209;DHT22;50527;52.414;13.226;2022-11-24T09:30:39;3.60;99.90
64209;DHT22;50527;52.414;13.226;2022-11-24T09:33:04;3.70;99.90
64209;DHT22;50527;52.414;13.226;2022-11-24T09:35:29;3.70;99.90
64209;DHT22;50527;52.414;13.226;2022-11-24T09:37:56;3.80;99.90
64209;DHT22;50527;52.414;13.226;2022-11-24T09:40:21;3.70;99.90
64209;DHT22;50527;52.414;13.226;2022-11-24T09:43:00;3.80;99.90
64209;DHT22;50527;52.414;13.226;2022-11-24T09:48:13;3.90;99.90
64209;DHT22;50527;52.414;13.226;2022-11-24T09:50:43;3.80;99.90
64209;DHT22;50527;52.414;13.226;2022-11-24T09:53:36;4.00;99.90
64209;DHT22;50527;52.414;13.226;2022-11-24T09:56:24;4.00;99.90
64209;DHT22;50527;52.414;13.226;2022-11-24T10:01:35;4.00;99.90
64209;DHT22;50527;52.414;13.226;2022-11-24T10:04:02;4.10;99.90
64209;DHT22;50527;52.414;13.226;2022-11-24T10:06:39;4.00;99.90
64209;DHT22;50527;52.414;13.226;2022-11-24T10:12:31;4.20;99.90
64209;DHT22;50527;52.414;13.226;2022-11-24T10:26:37;4.40;99.90
64209;DHT22;50527;52.414;13.226;2022-11-24T10:29:20;4.50;99.90
64209;DHT22;50527;52.414;13.226;2022-11-24T10:31:53;4.60;99.90
64209;DHT22;50527;52.414;13.226;2022-11-24T10:34:42;4.80;99.90
64209;DHT22;50527;52.414;13.226;2022-11-24T10:37:22;4.90;99.90
64209;DHT22;50527;52.414;13.226;2022-11-24T10:40:15;4.80;99.10
64209;DHT22;50527;52.414;13.226;2022-11-24T10:42:42;4.80;99.40
64209;DHT22;50527;52.414;13.226;2022-11-24T10:45:11;4.70;99.70
64209;DHT22;50527;52.414;13.226;2022-11-24T10:47:37;4.70;99.90
64209;DHT22;50527;52.414;13.226;2022-11-24T10:50:12;4.70;99.90
64209;DHT22;50527;52.414;13.226;2022-11-24T10:52:42;4.60;99.90
64209;DHT22;50527;52.414;13.226;2022-11-24T10:55:09;4.60;99.90
64209;DHT22;50527;52.414;13.226;2022-11-24T10:57:36;4.60;99.90
64209;DHT22;50527;52.414;13.226;2022-11-24T11:02:43;4.70;99.90
64209;DHT22;50527;52.414;13.226;2022-11-24T11:08:21;4.90;99.90
64209;DHT22;50527;52.414;13.226;2022-11-24T11:10:49;5.00;99.90
64209;DHT22;50527;52.414;13.226;2022-11-24T11:13:29;5.10;99.90
64209;DHT22;50527;52.414;13.226;2022-11-24T11:15:56;5.20;99.90
64209;DHT22;50527;52.414;13.226;2022-11-24T11:18:31;5.10;99.90
64209;DHT22;50527;52.414;13.226;2022-11-24T11:21:00;5.10;99.90
64209;DHT22;50527;52.414;13.226;2022-11-24T11:23:32;5.20;99.70
64209;DHT22;50527;52.414;13.226;2022-11-24T11:26:38;5.20;99.90
64209;DHT22;50527;52.414;13.226;2022-11-24T11:29:13;5.20;99.90
64209;DHT22;50527;52.414;13.226;2022-11-24T11:31:39;5.20;99.90
64209;DHT22;50527;52.414;13.226;2022-11-24T11:36:39;5.10;99.90
64209;DHT22;50527;52.414;13.226;2022-11-24T11:39:05;5.20;99.90
64209;DHT22;50527;52.414;13.226;2022-11-24T11:41:36;5.10;99.90
64209;DHT22;50527;52.414;13.226;2022-11-24T11:46:50;5.20;99.90
64209;DHT22;50527;52.414;13.226;2022-11-24T11:49:17;5.10;99.90
64209;DHT22;50527;52.414;13.226;2022-11-24T11:52:06;5.10;99.90
64209;DHT22;50527;52.414;13.226;2022-11-24T11:58:01;5.10;99.90
64209;DHT22;50527;52.414;13.226;2022-11-24T12:00:30;5.20;99.90
64209;DHT22;50527;52.414;13.226;2022-11-24T12:06:01;5.30;99.90
64209;DHT22;50527;52.414;13.226;2022-11-24T12:09:04;5.40;99.90
64209;DHT22;50527;52.414;13.226;2022-11-24T12:12:02;5.50;99.90
64209;DHT22;50527;52.414;13.226;2022-11-24T12:17:07;5.50;99.90
64209;DHT22;50527;52.414;13.226;2022-11-24T12:22:40;5.60;99.90
64209;DHT22;50527;52.414;13.226;2022-11-24T12:25:32;5.50;99.90
64209;DHT22;50527;52.414;13.226;2022-11-24T12:28:23;5.60;99.90
64209;DHT22;50527;52.414;13.226;2022-11-24T12:31:07;5.50;99.90
64209;DHT22;50527;52.414;13.226;2022-11-24T12:33:54;5.50;99.90
64209;DHT22;50527;52.414;13.226;2022-11-24T12:39:20;5.60;99.90
64209;DHT22;50527;52.414;13.226;2022-11-24T12:41:59;5.60;99.90
64209;DHT22;50527;52.414;13.226;2022-11-24T12:44:39;5.50;99.90
64209;DHT22;50527;52.414;13.226;2022-11-24T12:47:17;5.70;99.90
64209;DHT22;50527;52.414;13.226;2022-11-24T12:50:09;5.70;99.90
64209;DHT22;50527;52.414;13.226;2022-11-24T12:52:39;5.70;99.90
64209;DHT22;50527;52.414;13.226;2022-11-24T12:55:16;5.80;99.90
64209;DHT22;50527;52.414;13.226;2022-11-24T12:57:49;5.70;99.90
64209;DHT22;50527;52.414;13.226;2022-11-24T13:00:22;5.70;99.90
64209;DHT22;50527;52.414;13.226;2022-11-24T13:05:50;5.80;99.90
64209;DHT22;50527;52.414;13.226;2022-11-24T13:08:17;5.80;99.90
64209;DHT22;50527;52.414;13.226;2022-11-24T13:10:43;5.80;99.90
64209;DHT22;50527;52.414;13.226;2022-11-24T13:13:10;5.80;99.90
64209;DHT22;50527;52.414;13.226;2022-11-24T13:18:41;5.80;99.90
64209;DHT22;50527;52.414;13.226;2022-11-24T13:21:32;5.80;99.90
64209;DHT22;50527;52.414;13.226;2022-11-24T13:24:17;5.80;99.90
64209;DHT22;50527;52.414;13.226;2022-11-24T13:26:47;5.80;99.90
64209;DHT22;50527;52.414;13.226;2022-11-24T13:29:33;5.80;99.90
64209;DHT22;50527;52.414;13.226;2022-11-24T13:42:17;5.90;99.90
64209;DHT22;50527;52.414;13.226;2022-11-24T13:44:54;5.90;99.90
64209;DHT22;50527;52.414;13.226;2022-11-24T13:47:38;5.90;99.90
64209;DHT22;50527;52.414;13.226;2022-11-24T13:50:07;6.00;99.90
64209;DHT22;50527;52.414;13.226;2022-11-24T13:57:44;5.90;99.90
64209;DHT22;50527;52.414;13.226;2022-11-24T14:02:45;6.00;99.90
64209;DHT22;50527;52.414;13.226;2022-11-24T14:05:15;6.00;99.90
64209;DHT22;50527;52.414;13.226;2022-11-24T14:07:43;5.90;99.90
64209;DHT22;50527;52.414;13.226;2022-11-24T14:10:20;5.90;99.90
64209;DHT22;50527;52.414;13.226;2022-11-24T14:12:46;5.90;99.90
64209;DHT22;50527;52.414;13.226;2022-11-24T14:15:24;5.90;99.90
64209;DHT22;50527;52.414;13.226;2022-11-24T14:17:50;6.00;99.90
64209;DHT22;50527;52.414;13.226;2022-11-24T14:20:22;6.00;99.90
64209;DHT22;50527;52.414;13.226;2022-11-24T14:22:48;5.90;99.90
64209;DHT22;50527;52.414;13.226;2022-11-24T14:25:30;5.90;99.90
64209;DHT22;50527;52.414;13.226;2022-11-24T14:27:56;6.00;99.90
64209;DHT22;50527;52.414;13.226;2022-11-24T14:30:24;5.90;99.90
64209;DHT22;50527;52.414;13.226;2022-11-24T14:33:00;5.90;99.90
64209;DHT22;50527;52.414;13.226;2022-11-24T14:35:34;5.90;99.90
64209;DHT22;50527;52.414;13.226;2022-11-24T14:38:02;5.90;99.90
64209;DHT22;50527;52.414;13.226;2022-11-24T14:40:44;5.80;99.90
64209;DHT22;50527;52.414;13.226;2022-11-24T14:43:31;5.90;99.90
64209;DHT22;50527;52.414;13.226;2022-11-24T14:45:59;5.80;99.90
64209;DHT22;50527;52.414;13.226;2022-11-24T14:48:30;5.80;99.90
64209;DHT22;50527;52.414;13.226;2022-11-24T14:51:20;5.80;99.90
64209;DHT22;50527;52.414;13.226;2022-11-24T14:53:52;5.80;99.90
64209;DHT22;50527;52.414;13.226;2022-11-24T14:56:36;5.80;99.90
64209;DHT22;50527;52.414;13.226;2022-11-24T14:59:03;5.80;99.90
64209;DHT22;50527;52.414;13.226;2022-11-24T15:01:33;5.90;99.90
64209;DHT22;50527;52.414;13.226;2022-11-24T15:04:28;5.90;99.90
64209;DHT22;50527;52.414;13.226;2022-11-24T15:07:10;5.90;99.90
64209;DHT22;50527;52.414;13.226;2022-11-24T15:09:47;5.90;99.90
64209;DHT22;50527;52.414;13.226;2022-11-24T15:12:29;5.90;99.90
64209;DHT22;50527;52.414;13.226;2022-11-24T15:15:05;5.80;99.90
64209;DHT22;50527;52.414;13.226;2022-11-24T15:17:32;5.80;99.90
64209;DHT22;50527;52.414;13.226;2022-11-24T15:20:07;5.90;99.90
64209;DHT22;50527;52.414;13.226;2022-11-24T15:22:42;5.90;99.90
64209;DHT22;50527;52.414;13.226;2022-11-24T15:25:27;5.80;99.90
64209;DHT22;50527;52.414;13.226;2022-11-24T15:27:53;5.80;99.90
64209;DHT22;50527;52.414;13.226;2022-11-24T15:30:19;5.80;99.90
64209;DHT22;50527;52.414;13.226;2022-11-24T15:32:57;5.80;99.90
64209;DHT22;50527;52.414;13.226;2022-11-24T15:35:32;5.80;99.90
64209;DHT22;50527;52.414;13.226;2022-11-24T15:37:58;5.90;99.90
64209;DHT22;50527;52.414;13.226;2022-11-24T15:40:23;5.90;99.90
64209;DHT22;50527;52.414;13.226;2022-11-24T15:42:50;5.90;99.90
64209;DHT22;50527;52.414;13.226;2022-11-24T15:45:18;5.90;99.90
64209;DHT22;50527;52.414;13.226;2022-11-24T15:47:44;5.90;99.90
64209;DHT22;50527;52.414;13.226;2022-11-24T15:50:09;5.90;99.90
64209;DHT22;50527;52.414;13.226;2022-11-24T15:52:35;5.90;99.90
64209;DHT22;50527;52.414;13.226;2022-11-24T15:55:01;5.90;99.90
64209;DHT22;50527;52.414;13.226;2022-11-24T15:57:27;5.90;99.90
64209;DHT22;50527;52.414;13.226;2022-11-24T15:59:52;5.90;99.90
64209;DHT22;50527;52.414;13.226;2022-11-24T16:02:18;5.90;99.90
64209;DHT22;50527;52.414;13.226;2022-11-24T16:04:47;5.90;99.90
64209;DHT22;50527;52.414;13.226;2022-11-24T16:07:13;5.80;99.90
64209;DHT22;50527;52.414;13.226;2022-11-24T16:09:39;5.80;99.90
64209;DHT22;50527;52.414;13.226;2022-11-24T16:12:05;5.90;99.90
64209;DHT22;50527;52.414;13.226;2022-11-24T16:14:33;5.90;99.90
64209;DHT22;50527;52.414;13.226;2022-11-24T16:16:58;5.80;99.90
64209;DHT22;50527;52.414;13.226;2022-11-24T16:19:24;5.80;99.90
64209;DHT22;50527;52.414;13.226;2022-11-24T16:21:49;5.80;99.90
64209;DHT22;50527;52.414;13.226;2022-11-24T16:24:15;5.70;99.90
64209;DHT22;50527;52.414;13.226;2022-11-24T16:26:40;5.80;99.90
64209;DHT22;50527;52.414;13.226;2022-11-24T16:29:06;5.80;99.90
64209;DHT22;50527;52.414;13.226;2022-11-24T16:31:31;5.80;99.90
64209;DHT22;50527;52.414;13.226;2022-11-24T16:33:57;5.80;99.90
64209;DHT22;50527;52.414;13.226;2022-11-24T16:36:23;5.80;99.90
64209;DHT22;50527;52.414;13.226;2022-11-24T16:38:49;5.70;99.90
64209;DHT22;50527;52.414;13.226;2022-11-24T16:41:14;5.70;99.90
64209;DHT22;50527;52.414;13.226;2022-11-24T16:43:40;5.70;99.90
64209;DHT22;50527;52.414;13.226;2022-11-24T16:46:20;5.60;99.90
64209;DHT22;50527;52.414;13.226;2022-11-24T16:48:47;5.60;99.90
64209;DHT22;50527;52.414;13.226;2022-11-24T16:51:13;5.50;99.90
64209;DHT22;50527;52.414;13.226;2022-11-24T16:53:39;5.50;99.90